Time;durP1;ratioP1;P1;durP2;ratioP2;P2;SDS_P1;SDS_P2;PMS_P1;PMS_P2;Temp;Humidity;BMP_temperature;BMP_pressure;BME280_temperature;BME280_humidity;BME280_pressure;Samples;Min_cycle;Max_cycle;Signal;HPM_P1;HPM_P2
2024/01/24 00:02:10;;;;;;;11.32;3.47;;;;;;;;;;5049746;28;20546;-77
2024/01/24 00:04:36;;;;;;;21.30;4.50;;;;;;;;;;5036032;28;20442;-78
2024/01/24 00:07:02;;;;;;;18.35;3.42;;;;;;;;;;5052161;28;20035;-76
2024/01/24 00:09:31;;;;;;;26.77;4.97;;;;;;;;;;5080808;28;20039;-78
2024/01/24 00:11:57;;;;;;;20.75;4.25;;;;;;;;;;5052612;28;20040;-78
2024/01/24 00:14:23;;;;;;;11.00;3.05;;;;;;;;;;5035872;28;20035;-77
2024/01/24 00:16:49;;;;;;;16.10;4.40;;;;;;;;;;5068521;28;20129;-77
2024/01/24 00:19:15;;;;;;;24.73;5.97;;;;;;;;;;5069529;28;20047;-78
2024/01/24 00:21:41;;;;;;;14.02;3.95;;;;;;;;;;5046615;28;20047;-78
2024/01/24 00:24:07;;;;;;;16.55;4.10;;;;;;;;;;5071799;28;20573;-76
2024/01/24 00:26:33;;;;;;;29.98;5.53;;;;;;;;;;5056134;28;20028;-77
2024/01/24 00:28:59;;;;;;;19.38;5.88;;;;;;;;;;5042601;28;20462;-76
2024/01/24 00:31:25;;;;;;;23.88;4.65;;;;;;;;;;5037883;28;20036;-78
2024/01/24 00:33:52;;;;;;;19.17;5.05;;;;;;;;;;5047164;28;20044;-77
2024/01/24 00:36:18;;;;;;;28.13;5.38;;;;;;;;;;5058301;28;20044;-76
2024/01/24 00:38:45;;;;;;;15.50;4.60;;;;;;;;;;5052914;28;20040;-76
2024/01/24 00:41:11;;;;;;;25.77;4.75;;;;;;;;;;5037718;28;20311;-78
2024/01/24 00:43:37;;;;;;;22.23;4.45;;;;;;;;;;5043403;28;20486;-78
2024/01/24 00:46:03;;;;;;;23.70;5.45;;;;;;;;;;5054049;28;20036;-76
2024/01/24 00:48:29;;;;;;;14.60;4.15;;;;;;;;;;5074076;28;20454;-76
2024/01/24 00:50:55;;;;;;;25.23;5.32;;;;;;;;;;5058299;28;20487;-76
2024/01/24 00:53:21;;;;;;;18.02;4.78;;;;;;;;;;5054419;28;20035;-77
2024/01/24 00:55:48;;;;;;;15.45;3.72;;;;;;;;;;5071081;28;20050;-76
2024/01/24 00:58:14;;;;;;;23.65;4.18;;;;;;;;;;5062074;28;20478;-77
2024/01/24 01:00:40;;;;;;;25.50;4.43;;;;;;;;;;5070580;28;20064;-76
2024/01/24 01:03:08;;;;;;;20.65;4.72;;;;;;;;;;5055317;28;20086;-77
2024/01/24 01:05:34;;;;;;;22.40;4.13;;;;;;;;;;5041154;28;20040;-77
2024/01/24 01:08:00;;;;;;;20.13;4.28;;;;;;;;;;5056234;28;20100;-77
2024/01/24 01:10:26;;;;;;;19.48;3.85;;;;;;;;;;5067836;28;20123;-77
2024/01/24 01:12:53;;;;;;;17.45;4.05;;;;;;;;;;5072890;28;20035;-77
2024/01/24 01:15:19;;;;;;;20.63;4.10;;;;;;;;;;5078083;28;20047;-77
2024/01/24 01:17:45;;;;;;;19.60;3.63;;;;;;;;;;5042671;28;20127;-76
2024/01/24 01:20:14;;;;;;;16.27;3.17;;;;;;;;;;5055230;28;21187;-76
2024/01/24 01:22:40;;;;;;;27.85;4.78;;;;;;;;;;5070613;28;20039;-76
2024/01/24 01:25:07;;;;;;;12.68;3.28;;;;;;;;;;5058971;28;20096;-76
2024/01/24 01:27:33;;;;;;;28.45;4.60;;;;;;;;;;5069646;28;20461;-77
2024/01/24 01:29:59;;;;;;;16.88;3.50;;;;;;;;;;5073895;28;20044;-78
2024/01/24 01:32:25;;;;;;;17.00;2.67;;;;;;;;;;5055577;28;20047;-77
2024/01/24 01:34:54;;;;;;;14.43;3.22;;;;;;;;;;5055690;28;20036;-80
2024/01/24 01:37:23;;;;;;;24.17;3.90;;;;;;;;;;5065680;28;20048;-79
2024/01/24 01:39:49;;;;;;;10.43;2.92;;;;;;;;;;5073997;28;20032;-81
2024/01/24 01:42:15;;;;;;;17.65;3.13;;;;;;;;;;5058042;28;20028;-80
2024/01/24 01:44:46;;;;;;;21.08;3.85;;;;;;;;;;5068056;28;20491;-82
2024/01/24 01:47:12;;;;;;;10.85;2.95;;;;;;;;;;5074467;28;20035;-80
2024/01/24 01:49:40;;;;;;;25.27;4.68;;;;;;;;;;5069253;28;20120;-80
2024/01/24 01:52:06;;;;;;;15.50;3.58;;;;;;;;;;5072522;28;20028;-80
2024/01/24 01:54:32;;;;;;;19.80;3.13;;;;;;;;;;5052121;28;20403;-80
2024/01/24 01:56:58;;;;;;;16.58;3.05;;;;;;;;;;5054142;28;20044;-80
2024/01/24 01:59:25;;;;;;;17.25;3.00;;;;;;;;;;5034998;28;20040;-80
2024/01/24 02:01:54;;;;;;;17.00;3.80;;;;;;;;;;5062372;28;20072;-80
2024/01/24 02:04:20;;;;;;;17.08;3.45;;;;;;;;;;5051214;28;20047;-80
2024/01/24 02:06:46;;;;;;;17.00;2.88;;;;;;;;;;5065266;28;20036;-80
2024/01/24 02:09:13;;;;;;;20.27;3.88;;;;;;;;;;5069213;28;20047;-80
2024/01/24 02:11:40;;;;;;;17.83;3.95;;;;;;;;;;5040837;28;20036;-80
2024/01/24 02:14:06;;;;;;;10.93;2.80;;;;;;;;;;5053138;28;20568;-80
2024/01/24 02:16:32;;;;;;;11.05;2.60;;;;;;;;;;5035362;28;20476;-79
2024/01/24 02:18:58;;;;;;;17.85;3.53;;;;;;;;;;5051511;28;20101;-80
2024/01/24 02:21:25;;;;;;;12.50;2.40;;;;;;;;;;5053874;28;20032;-79
2024/01/24 02:23:51;;;;;;;10.43;2.40;;;;;;;;;;5068384;28;20492;-79
2024/01/24 02:26:17;;;;;;;10.50;1.92;;;;;;;;;;5069030;28;20878;-81
2024/01/24 02:28:43;;;;;;;13.13;2.63;;;;;;;;;;5053698;28;20113;-81
2024/01/24 02:31:09;;;;;;;16.42;2.72;;;;;;;;;;5069690;28;20049;-81
2024/01/24 02:33:36;;;;;;;12.68;3.28;;;;;;;;;;5054614;28;20094;-80
2024/01/24 02:36:02;;;;;;;13.25;2.97;;;;;;;;;;5055030;28;20040;-81
2024/01/24 02:38:28;;;;;;;18.40;2.90;;;;;;;;;;5074216;28;20036;-80
2024/01/24 02:40:54;;;;;;;12.65;3.15;;;;;;;;;;5054787;28;20106;-80
2024/01/24 02:43:20;;;;;;;17.42;2.38;;;;;;;;;;5053717;28;21821;-81
2024/01/24 02:45:46;;;;;;;11.93;2.28;;;;;;;;;;5052716;28;20072;-81
2024/01/24 02:48:12;;;;;;;13.25;2.15;;;;;;;;;;5070592;28;20444;-81
2024/01/24 02:50:38;;;;;;;10.63;2.60;;;;;;;;;;5037395;28;20028;-81
2024/01/24 02:53:04;;;;;;;11.15;2.30;;;;;;;;;;5050636;28;20123;-80
2024/01/24 02:55:30;;;;;;;15.82;2.78;;;;;;;;;;5038231;28;20039;-79
2024/01/24 02:57:56;;;;;;;24.05;2.60;;;;;;;;;;5066923;28;20067;-78
2024/01/24 03:00:22;;;;;;;12.48;2.22;;;;;;;;;;5071186;28;20044;-78
2024/01/24 03:02:48;;;;;;;17.80;3.17;;;;;;;;;;5070577;28;20434;-78
2024/01/24 03:05:14;;;;;;;15.27;2.83;;;;;;;;;;5055681;28;20043;-79
2024/01/24 03:07:41;;;;;;;18.98;2.47;;;;;;;;;;5072433;28;20119;-78
2024/01/24 03:10:08;;;;;;;12.43;2.25;;;;;;;;;;5068317;28;20039;-77
2024/01/24 03:12:34;;;;;;;15.18;3.00;;;;;;;;;;5069347;28;20039;-77
2024/01/24 03:15:00;;;;;;;14.07;3.55;;;;;;;;;;5036489;28;20040;-77
2024/01/24 03:17:26;;;;;;;17.13;3.00;;;;;;;;;;5049825;28;20080;-78
2024/01/24 03:19:53;;;;;;;13.23;2.33;;;;;;;;;;5072378;28;20495;-77
2024/01/24 03:22:20;;;;;;;23.58;2.83;;;;;;;;;;5070803;28;20036;-78
2024/01/24 03:24:46;;;;;;;18.17;2.55;;;;;;;;;;5055694;28;20499;-77
2024/01/24 03:27:12;;;;;;;14.68;2.90;;;;;;;;;;5033528;28;20614;-77
2024/01/24 03:29:38;;;;;;;18.27;3.58;;;;;;;;;;5051047;28;20532;-78
2024/01/24 03:32:05;;;;;;;13.68;3.53;;;;;;;;;;5072536;28;20039;-78
2024/01/24 03:34:31;;;;;;;15.57;2.97;;;;;;;;;;5053339;28;20046;-78
2024/01/24 03:36:57;;;;;;;20.30;3.03;;;;;;;;;;5091049;28;20039;-78
2024/01/24 03:39:23;;;;;;;12.65;3.80;;;;;;;;;;5032078;28;20041;-78
2024/01/24 03:41:49;;;;;;;22.00;4.55;;;;;;;;;;5052034;28;20519;-77
2024/01/24 03:44:15;;;;;;;18.92;3.70;;;;;;;;;;5052977;28;20107;-79
2024/01/24 03:46:41;;;;;;;22.40;4.53;;;;;;;;;;5069705;28;20070;-79
2024/01/24 03:49:07;;;;;;;16.75;2.88;;;;;;;;;;5053142;28;20138;-79
2024/01/24 03:51:33;;;;;;;21.90;4.75;;;;;;;;;;5041088;28;20028;-79
2024/01/24 03:53:59;;;;;;;19.58;3.35;;;;;;;;;;5049594;28;20035;-78
2024/01/24 03:56:26;;;;;;;23.15;3.28;;;;;;;;;;5068936;28;20039;-77
2024/01/24 03:58:55;;;;;;;27.35;4.72;;;;;;;;;;5069929;28;20475;-79
2024/01/24 04:01:21;;;;;;;12.57;3.38;;;;;;;;;;5051386;28;20522;-79
2024/01/24 04:03:48;;;;;;;26.90;4.90;;;;;;;;;;5035822;28;20077;-78
2024/01/24 04:06:14;;;;;;;25.13;4.35;;;;;;;;;;5071184;28;20041;-78
2024/01/24 04:08:43;;;;;;;26.15;3.85;;;;;;;;;;5067745;28;20102;-78
2024/01/24 04:11:09;;;;;;;17.17;3.85;;;;;;;;;;5050426;28;20177;-78
2024/01/24 04:13:35;;;;;;;21.38;4.50;;;;;;;;;;5054431;28;20051;-79
2024/01/24 04:16:01;;;;;;;16.15;3.78;;;;;;;;;;5052525;28;20899;-78
2024/01/24 04:18:27;;;;;;;25.15;3.83;;;;;;;;;;5053238;28;20134;-78
2024/01/24 04:20:54;;;;;;;18.02;4.45;;;;;;;;;;5051569;28;20036;-78
2024/01/24 04:23:20;;;;;;;25.33;4.93;;;;;;;;;;5052836;28;20043;-78
2024/01/24 04:25:49;;;;;;;22.38;4.47;;;;;;;;;;5034843;28;20487;-78
2024/01/24 04:28:15;;;;;;;24.48;4.68;;;;;;;;;;5037150;28;20518;-78
2024/01/24 04:30:41;;;;;;;21.80;3.90;;;;;;;;;;5071320;28;20094;-78
2024/01/24 04:33:07;;;;;;;27.42;4.53;;;;;;;;;;5052612;28;20036;-77
2024/01/24 04:35:33;;;;;;;24.73;4.80;;;;;;;;;;5050189;28;20055;-77
2024/01/24 04:37:59;;;;;;;23.80;4.18;;;;;;;;;;5033536;28;20048;-77
2024/01/24 04:40:25;;;;;;;26.58;4.82;;;;;;;;;;5065909;28;20055;-78
2024/01/24 04:42:52;;;;;;;32.30;5.40;;;;;;;;;;5070486;28;20051;-77
2024/01/24 04:45:18;;;;;;;24.55;4.40;;;;;;;;;;5033741;28;20590;-77
2024/01/24 04:47:45;;;;;;;26.40;4.80;;;;;;;;;;5070750;28;20503;-77
2024/01/24 04:50:12;;;;;;;29.48;4.43;;;;;;;;;;5050768;28;20460;-77
2024/01/24 04:52:38;;;;;;;25.45;4.03;;;;;;;;;;5054691;28;20035;-77
2024/01/24 04:55:04;;;;;;;26.65;4.80;;;;;;;;;;5047996;28;20043;-76
2024/01/24 04:57:30;;;;;;;23.88;4.13;;;;;;;;;;5050968;28;20028;-77
2024/01/24 04:59:56;;;;;;;22.60;4.53;;;;;;;;;;5051220;28;20047;-78
2024/01/24 05:02:22;;;;;;;25.55;5.10;;;;;;;;;;5050142;28;20139;-78
2024/01/24 05:04:48;;;;;;;25.33;4.90;;;;;;;;;;5072290;28;20050;-78
2024/01/24 05:07:14;;;;;;;27.77;4.82;;;;;;;;;;5035576;28;20032;-78
2024/01/24 05:09:41;;;;;;;25.25;4.35;;;;;;;;;;5053772;28;20040;-78
2024/01/24 05:12:07;;;;;;;42.03;6.07;;;;;;;;;;5071093;28;20051;-78
2024/01/24 05:14:33;;;;;;;29.23;6.20;;;;;;;;;;5050034;28;20424;-76
2024/01/24 05:17:00;;;;;;;38.00;6.72;;;;;;;;;;5050637;28;20051;-76
2024/01/24 05:19:26;;;;;;;25.73;4.32;;;;;;;;;;5051216;28;20120;-77
2024/01/24 05:21:52;;;;;;;40.80;6.28;;;;;;;;;;5070332;28;20066;-76
2024/01/24 05:24:18;;;;;;;30.73;5.57;;;;;;;;;;5071164;28;20062;-78
2024/01/24 05:26:46;;;;;;;27.73;5.70;;;;;;;;;;5050616;28;20043;-78
2024/01/24 05:29:12;;;;;;;34.35;5.90;;;;;;;;;;5054975;28;20071;-78
2024/01/24 05:31:38;;;;;;;30.98;5.28;;;;;;;;;;5038506;28;20044;-78
2024/01/24 05:34:04;;;;;;;32.80;5.60;;;;;;;;;;5074032;28;20411;-78
2024/01/24 05:36:30;;;;;;;34.65;5.72;;;;;;;;;;5038252;28;20496;-78
2024/01/24 05:38:57;;;;;;;32.03;5.75;;;;;;;;;;5035605;28;20090;-78
2024/01/24 05:41:23;;;;;;;42.95;7.40;;;;;;;;;;5065487;28;20073;-77
2024/01/24 05:43:49;;;;;;;38.78;9.68;;;;;;;;;;5073921;28;20047;-78
2024/01/24 05:46:15;;;;;;;33.58;6.72;;;;;;;;;;5072620;28;20487;-77
2024/01/24 05:48:41;;;;;;;38.95;5.20;;;;;;;;;;5071478;28;20090;-77
2024/01/24 05:51:07;;;;;;;39.13;7.60;;;;;;;;;;5055493;28;20047;-77
2024/01/24 05:53:33;;;;;;;33.15;5.85;;;;;;;;;;5056190;28;20035;-77
2024/01/24 05:56:00;;;;;;;40.38;7.35;;;;;;;;;;5072846;28;20395;-78
2024/01/24 05:58:26;;;;;;;28.67;5.63;;;;;;;;;;5057086;28;20046;-79
2024/01/24 06:00:53;;;;;;;45.05;6.80;;;;;;;;;;5055922;28;20059;-79
2024/01/24 06:03:20;;;;;;;25.48;4.93;;;;;;;;;;5072335;28;20040;-76
2024/01/24 06:05:46;;;;;;;45.10;8.55;;;;;;;;;;5072317;28;20040;-78
2024/01/24 06:08:12;;;;;;;43.22;7.90;;;;;;;;;;5055460;28;20096;-76
2024/01/24 06:10:38;;;;;;;43.78;8.05;;;;;;;;;;5042688;28;20115;-74
2024/01/24 06:13:04;;;;;;;42.97;7.20;;;;;;;;;;5031034;28;20036;-76
2024/01/24 06:15:30;;;;;;;44.28;7.68;;;;;;;;;;5054428;28;20454;-77
2024/01/24 06:17:57;;;;;;;38.50;7.30;;;;;;;;;;5039407;28;20051;-77
2024/01/24 06:20:23;;;;;;;34.88;7.00;;;;;;;;;;5050657;28;20037;-74
2024/01/24 06:22:49;;;;;;;46.17;7.43;;;;;;;;;;5057432;28;20051;-76
2024/01/24 06:25:15;;;;;;;30.10;6.15;;;;;;;;;;5068162;28;20068;-79
2024/01/24 06:27:42;;;;;;;22.67;6.32;;;;;;;;;;5047810;28;20086;-79
2024/01/24 06:30:09;;;;;;;28.80;5.85;;;;;;;;;;5057549;28;20040;-79
2024/01/24 06:32:36;;;;;;;37.35;6.72;;;;;;;;;;5053045;28;20044;-80
2024/01/24 06:35:02;;;;;;;34.70;7.05;;;;;;;;;;5058777;28;20066;-79
2024/01/24 06:37:28;;;;;;;36.55;5.88;;;;;;;;;;5060216;28;20112;-78
2024/01/24 06:39:54;;;;;;;40.25;7.10;;;;;;;;;;5078119;28;20031;-80
2024/01/24 06:42:20;;;;;;;36.42;6.20;;;;;;;;;;5068809;28;20036;-80
2024/01/24 06:44:46;;;;;;;43.45;6.75;;;;;;;;;;5047546;28;20033;-80
2024/01/24 06:47:12;;;;;;;51.08;7.97;;;;;;;;;;5078743;28;20044;-80
2024/01/24 06:49:38;;;;;;;44.67;7.68;;;;;;;;;;5061776;28;20032;-79
2024/01/24 06:52:06;;;;;;;34.85;7.60;;;;;;;;;;5057046;28;20472;-80
2024/01/24 06:54:35;;;;;;;34.22;5.82;;;;;;;;;;5062803;28;20057;-79
2024/01/24 06:57:03;;;;;;;48.75;8.73;;;;;;;;;;5055504;28;20518;-80
2024/01/24 06:59:30;;;;;;;35.33;7.28;;;;;;;;;;5078837;28;20097;-80
2024/01/24 07:01:56;;;;;;;28.08;5.85;;;;;;;;;;5048886;28;20041;-80
2024/01/24 07:04:22;;;;;;;40.83;7.05;;;;;;;;;;5081158;28;20500;-81
2024/01/24 07:06:48;;;;;;;32.85;6.50;;;;;;;;;;5073075;28;20032;-81
2024/01/24 07:09:15;;;;;;;38.42;7.25;;;;;;;;;;5075970;28;20077;-80
2024/01/24 07:11:42;;;;;;;33.80;6.53;;;;;;;;;;5041151;28;20051;-81
2024/01/24 07:14:08;;;;;;;28.63;7.10;;;;;;;;;;5053772;28;20153;-80
2024/01/24 07:16:34;;;;;;;36.92;6.78;;;;;;;;;;5051103;28;20032;-80
2024/01/24 07:19:00;;;;;;;39.20;8.00;;;;;;;;;;5078548;28;20043;-80
2024/01/24 07:21:26;;;;;;;31.27;6.03;;;;;;;;;;5070486;28;20495;-79
2024/01/24 07:23:52;;;;;;;33.97;5.75;;;;;;;;;;5080134;28;20499;-80
2024/01/24 07:26:18;;;;;;;39.08;7.47;;;;;;;;;;5036885;28;20036;-80
2024/01/24 07:28:44;;;;;;;39.55;7.50;;;;;;;;;;5063463;28;20740;-80
2024/01/24 07:31:10;;;;;;;42.47;6.30;;;;;;;;;;5073561;28;20040;-81
2024/01/24 07:33:38;;;;;;;38.65;6.13;;;;;;;;;;5034987;28;20227;-81
2024/01/24 07:36:05;;;;;;;24.80;5.93;;;;;;;;;;5038326;28;20035;-78
2024/01/24 07:38:32;;;;;;;46.38;7.45;;;;;;;;;;5072268;28;20462;-78
2024/01/24 07:40:58;;;;;;;35.42;7.10;;;;;;;;;;5075053;28;20403;-78
2024/01/24 07:43:24;;;;;;;32.40;5.90;;;;;;;;;;5061847;28;20040;-78
2024/01/24 07:45:50;;;;;;;28.35;5.88;;;;;;;;;;5048205;28;20106;-78
2024/01/24 07:48:17;;;;;;;33.97;6.43;;;;;;;;;;5036809;28;20115;-78
2024/01/24 07:50:43;;;;;;;37.53;6.45;;;;;;;;;;5077958;28;20067;-77
2024/01/24 07:53:09;;;;;;;28.95;5.43;;;;;;;;;;5074641;28;20568;-77
2024/01/24 07:55:36;;;;;;;33.65;6.38;;;;;;;;;;5045105;28;20040;-77
2024/01/24 07:58:02;;;;;;;33.90;6.55;;;;;;;;;;5049279;28;20415;-77
2024/01/24 08:00:28;;;;;;;38.65;7.22;;;;;;;;;;5044994;28;20068;-77
2024/01/24 08:02:54;;;;;;;36.65;5.75;;;;;;;;;;5054136;28;20040;-78
2024/01/24 08:05:22;;;;;;;35.97;7.50;;;;;;;;;;5069924;28;20036;-78
2024/01/24 08:07:50;;;;;;;35.35;6.55;;;;;;;;;;5048985;28;20036;-78
2024/01/24 08:10:16;;;;;;;32.50;5.70;;;;;;;;;;5042805;28;20036;-78
2024/01/24 08:12:43;;;;;;;37.80;6.72;;;;;;;;;;5061144;28;20047;-77
2024/01/24 08:15:09;;;;;;;42.65;7.68;;;;;;;;;;5051752;28;20040;-76
2024/01/24 08:17:36;;;;;;;31.60;6.20;;;;;;;;;;5056933;28;20071;-77
2024/01/24 08:20:09;;;;;;;42.25;6.93;;;;;;;;;;5053786;28;20035;-77
2024/01/24 08:22:36;;;;;;;44.17;7.63;;;;;;;;;;5084387;28;20061;-78
2024/01/24 08:25:02;;;;;;;33.78;6.55;;;;;;;;;;5065696;28;20062;-77
2024/01/24 08:27:28;;;;;;;42.72;8.13;;;;;;;;;;5055771;28;20040;-77
2024/01/24 08:29:56;;;;;;;37.88;7.30;;;;;;;;;;5072935;28;20095;-77
2024/01/24 08:32:23;;;;;;;28.80;5.53;;;;;;;;;;5070533;28;20112;-77
2024/01/24 08:34:49;;;;;;;29.05;5.00;;;;;;;;;;5065854;28;20089;-77
2024/01/24 08:37:15;;;;;;;29.80;5.60;;;;;;;;;;5062860;28;20066;-77
2024/01/24 08:39:41;;;;;;;34.40;7.35;;;;;;;;;;5060213;28;20040;-77
2024/01/24 08:42:07;;;;;;;43.30;8.23;;;;;;;;;;5044973;28;20400;-78
2024/01/24 08:44:33;;;;;;;33.00;6.38;;;;;;;;;;5069683;28;20044;-79
2024/01/24 08:46:59;;;;;;;39.10;7.68;;;;;;;;;;5037473;28;20502;-80
2024/01/24 08:49:25;;;;;;;34.50;6.03;;;;;;;;;;5045311;28;20035;-80
2024/01/24 08:51:51;;;;;;;39.72;7.70;;;;;;;;;;5038539;28;20495;-78
2024/01/24 08:54:17;;;;;;;41.25;8.20;;;;;;;;;;5034346;28;20036;-79
2024/01/24 08:56:43;;;;;;;38.72;7.25;;;;;;;;;;5037293;28;20046;-78
2024/01/24 08:59:09;;;;;;;42.65;7.70;;;;;;;;;;5037266;28;20056;-80
2024/01/24 09:01:35;;;;;;;34.00;7.07;;;;;;;;;;5055392;28;20067;-79
2024/01/24 09:04:01;;;;;;;32.35;5.68;;;;;;;;;;5071724;28;20048;-79
2024/01/24 09:06:28;;;;;;;32.13;6.57;;;;;;;;;;5055792;28;20123;-79
2024/01/24 09:08:54;;;;;;;41.03;6.93;;;;;;;;;;5044354;28;20040;-79
2024/01/24 09:11:20;;;;;;;43.78;7.43;;;;;;;;;;5076998;28;20040;-79
2024/01/24 09:13:47;;;;;;;41.13;8.13;;;;;;;;;;5081322;28;20050;-79
2024/01/24 09:16:13;;;;;;;35.25;7.00;;;;;;;;;;5082543;28;20073;-79
2024/01/24 09:18:43;;;;;;;30.65;6.05;;;;;;;;;;5069699;28;20039;-79
2024/01/24 09:21:09;;;;;;;38.28;6.93;;;;;;;;;;5059534;28;20044;-79
2024/01/24 09:23:36;;;;;;;46.33;8.32;;;;;;;;;;5059662;28;20036;-78
2024/01/24 09:26:03;;;;;;;28.55;5.70;;;;;;;;;;5058203;28;20474;-79
2024/01/24 09:28:29;;;;;;;40.10;6.63;;;;;;;;;;5070688;28;20056;-79
2024/01/24 09:30:55;;;;;;;44.85;7.88;;;;;;;;;;5075228;28;20036;-79
2024/01/24 09:33:23;;;;;;;36.00;6.82;;;;;;;;;;5074682;28;20060;-79
2024/01/24 09:35:49;;;;;;;44.10;8.00;;;;;;;;;;5083249;28;20044;-79
2024/01/24 09:38:15;;;;;;;36.38;6.43;;;;;;;;;;5073646;28;20043;-79
2024/01/24 09:40:42;;;;;;;29.38;7.47;;;;;;;;;;5047010;28;20047;-80
2024/01/24 09:43:11;;;;;;;34.05;6.47;;;;;;;;;;5060006;28;20048;-80
2024/01/24 09:45:42;;;;;;;37.25;7.25;;;;;;;;;;5058267;28;20518;-79
2024/01/24 09:48:09;;;;;;;32.05;5.78;;;;;;;;;;5041886;28;20047;-79
2024/01/24 09:50:36;;;;;;;31.38;6.35;;;;;;;;;;5076390;28;20133;-79
2024/01/24 09:53:07;;;;;;;40.30;7.68;;;;;;;;;;5082130;28;20830;-79
2024/01/24 09:55:34;;;;;;;37.25;6.97;;;;;;;;;;5058575;28;20048;-78
2024/01/24 09:58:00;;;;;;;34.15;6.60;;;;;;;;;;5051120;28;20035;-77
2024/01/24 10:00:27;;;;;;;38.13;6.43;;;;;;;;;;5077722;28;20041;-76
2024/01/24 10:02:54;;;;;;;43.55;7.20;;;;;;;;;;5090239;28;20052;-77
2024/01/24 10:05:21;;;;;;;29.83;5.35;;;;;;;;;;5057202;28;20036;-78
2024/01/24 10:07:47;;;;;;;39.15;6.07;;;;;;;;;;5059746;28;20107;-79
2024/01/24 10:10:15;;;;;;;42.80;8.02;;;;;;;;;;5057077;28;20036;-79
2024/01/24 10:12:45;;;;;;;41.50;6.63;;;;;;;;;;5055138;28;20530;-79
2024/01/24 10:15:12;;;;;;;39.47;6.95;;;;;;;;;;5069983;28;20035;-79
2024/01/24 10:17:42;;;;;;;39.22;6.88;;;;;;;;;;5073931;28;20088;-79
2024/01/24 10:20:10;;;;;;;35.20;7.65;;;;;;;;;;5061141;28;20043;-80
2024/01/24 10:22:36;;;;;;;32.25;5.90;;;;;;;;;;5071624;28;20059;-79
2024/01/24 10:25:02;;;;;;;33.17;6.35;;;;;;;;;;5083139;28;20032;-79
2024/01/24 10:27:28;;;;;;;39.42;6.85;;;;;;;;;;5081700;28;20074;-79
2024/01/24 10:29:54;;;;;;;32.88;6.22;;;;;;;;;;5086082;28;20051;-79
2024/01/24 10:32:21;;;;;;;29.95;6.15;;;;;;;;;;5066959;28;20055;-78
2024/01/24 10:34:50;;;;;;;30.95;5.07;;;;;;;;;;5069895;28;20459;-78
2024/01/24 10:37:18;;;;;;;30.10;5.72;;;;;;;;;;5064630;28;20128;-79
2024/01/24 10:39:44;;;;;;;33.40;6.63;;;;;;;;;;5081773;28;20046;-79
2024/01/24 10:42:11;;;;;;;25.58;6.75;;;;;;;;;;5044000;28;20109;-79
2024/01/24 10:44:38;;;;;;;33.53;7.07;;;;;;;;;;5060645;28;20121;-79
2024/01/24 10:47:04;;;;;;;37.78;7.40;;;;;;;;;;5058360;28;20032;-79
2024/01/24 10:49:31;;;;;;;26.75;5.55;;;;;;;;;;5072123;28;20047;-79
2024/01/24 10:51:59;;;;;;;21.55;5.20;;;;;;;;;;5077342;28;20562;-79
2024/01/24 10:54:27;;;;;;;34.15;6.57;;;;;;;;;;5080045;28;20033;-79
2024/01/24 10:56:53;;;;;;;38.00;7.78;;;;;;;;;;5045842;28;20036;-79
2024/01/24 10:59:20;;;;;;;34.40;5.47;;;;;;;;;;5065292;28;20032;-78
2024/01/24 11:01:47;;;;;;;35.95;7.13;;;;;;;;;;5044408;28;20040;-79
2024/01/24 11:04:16;;;;;;;40.55;6.82;;;;;;;;;;5081367;28;20036;-79
2024/01/24 11:06:47;;;;;;;38.17;6.28;;;;;;;;;;5079678;28;20043;-79
2024/01/24 11:09:20;;;;;;;43.00;6.28;;;;;;;;;;5064306;28;20047;-79
2024/01/24 11:11:47;;;;;;;32.22;6.10;;;;;;;;;;5052662;28;20040;-79
2024/01/24 11:14:28;;;;;;;37.70;6.43;;;;;;;;;;5057936;28;20044;-80
2024/01/24 11:16:54;;;;;;;30.58;6.13;;;;;;;;;;5064013;28;20073;-76
2024/01/24 11:19:22;;;;;;;35.95;7.47;;;;;;;;;;5062131;28;20039;-77
2024/01/24 11:21:48;;;;;;;30.90;6.15;;;;;;;;;;5075452;28;20158;-76
2024/01/24 11:24:34;;;;;;;37.88;6.03;;;;;;;;;;5058337;28;20044;-76
2024/01/24 11:27:02;;;;;;;32.20;5.60;;;;;;;;;;5074686;28;20044;-76
2024/01/24 11:29:34;;;;;;;35.28;5.85;;;;;;;;;;5032939;28;20447;-76
2024/01/24 11:32:00;;;;;;;28.85;5.18;;;;;;;;;;5062906;28;20035;-76
2024/01/24 11:34:29;;;;;;;34.40;6.13;;;;;;;;;;5057270;28;20434;-76
2024/01/24 11:36:56;;;;;;;41.35;6.85;;;;;;;;;;5057093;28;20479;-75
2024/01/24 11:39:31;;;;;;;31.50;6.28;;;;;;;;;;5052812;28;20044;-76
2024/01/24 11:42:16;;;;;;;21.95;5.57;;;;;;;;;;5055484;28;20036;-76
2024/01/24 11:44:42;;;;;;;37.67;6.93;;;;;;;;;;5068210;28;20036;-75
2024/01/24 11:47:08;;;;;;;21.13;4.80;;;;;;;;;;5037837;28;20101;-76
2024/01/24 11:49:34;;;;;;;35.03;5.97;;;;;;;;;;5066287;28;20031;-75
2024/01/24 11:52:02;;;;;;;39.70;6.50;;;;;;;;;;5045802;28;20081;-76
2024/01/24 11:54:28;;;;;;;26.45;5.40;;;;;;;;;;5057234;28;20402;-76
2024/01/24 11:56:54;;;;;;;35.67;7.20;;;;;;;;;;5066150;28;20089;-76
2024/01/24 11:59:21;;;;;;;42.03;7.22;;;;;;;;;;5042771;28;20040;-76
2024/01/24 12:01:47;;;;;;;26.55;6.40;;;;;;;;;;5064379;28;20039;-75
2024/01/24 12:04:13;;;;;;;34.55;6.13;;;;;;;;;;5055002;28;20484;-76
2024/01/24 12:06:41;;;;;;;38.22;6.70;;;;;;;;;;5054726;28;20078;-76
2024/01/24 12:09:09;;;;;;;36.90;7.63;;;;;;;;;;5074836;28;20058;-75
2024/01/24 12:11:35;;;;;;;35.83;7.15;;;;;;;;;;5052721;28;20129;-77
2024/01/24 12:14:02;;;;;;;29.38;6.00;;;;;;;;;;5059571;28;20046;-76
2024/01/24 12:16:30;;;;;;;28.40;6.35;;;;;;;;;;5047068;28;20070;-77
2024/01/24 12:18:57;;;;;;;35.28;5.93;;;;;;;;;;5065609;28;20545;-76
2024/01/24 12:21:23;;;;;;;30.50;6.65;;;;;;;;;;5074115;28;20189;-76
2024/01/24 12:23:50;;;;;;;33.88;6.32;;;;;;;;;;5042857;28;20040;-75
2024/01/24 12:26:16;;;;;;;35.40;5.75;;;;;;;;;;5047807;28;20491;-79
2024/01/24 12:28:42;;;;;;;30.88;6.72;;;;;;;;;;5086661;28;20048;-79
2024/01/24 12:31:08;;;;;;;38.55;7.63;;;;;;;;;;5054627;28;20048;-79
2024/01/24 12:33:34;;;;;;;31.05;6.45;;;;;;;;;;5063874;28;20119;-78
2024/01/24 12:36:07;;;;;;;27.25;5.90;;;;;;;;;;5059880;28;20033;-78
2024/01/24 12:38:36;;;;;;;41.70;6.80;;;;;;;;;;5058083;28;20051;-78
2024/01/24 12:41:02;;;;;;;32.15;7.07;;;;;;;;;;5073258;28;20036;-78
2024/01/24 12:43:28;;;;;;;32.08;7.45;;;;;;;;;;5080945;28;20496;-78
2024/01/24 12:45:54;;;;;;;25.70;5.90;;;;;;;;;;5068610;28;20037;-78
2024/01/24 12:48:21;;;;;;;42.75;7.03;;;;;;;;;;5079234;28;20563;-79
2024/01/24 12:50:47;;;;;;;45.85;7.43;;;;;;;;;;5060253;28;20040;-79
2024/01/24 12:53:13;;;;;;;45.35;8.77;;;;;;;;;;5069349;28;20081;-79
2024/01/24 12:55:39;;;;;;;41.22;7.03;;;;;;;;;;5058461;28;20123;-78
2024/01/24 12:58:05;;;;;;;38.58;8.07;;;;;;;;;;5047904;28;20038;-78
2024/01/24 13:00:33;;;;;;;32.05;7.28;;;;;;;;;;5046719;28;20519;-78
2024/01/24 13:02:59;;;;;;;33.47;6.25;;;;;;;;;;5045428;28;20048;-78
2024/01/24 13:05:25;;;;;;;29.98;6.90;;;;;;;;;;5045527;28;20036;-78
2024/01/24 13:07:51;;;;;;;30.13;6.75;;;;;;;;;;5064046;28;20043;-78
2024/01/24 13:10:17;;;;;;;34.55;6.57;;;;;;;;;;5061188;28;20082;-78
2024/01/24 13:12:46;;;;;;;27.60;5.07;;;;;;;;;;5051261;28;20043;-77
2024/01/24 13:15:12;;;;;;;36.60;6.10;;;;;;;;;;5061881;28;20509;-77
2024/01/24 13:17:38;;;;;;;38.75;7.40;;;;;;;;;;5073827;28;20521;-78
2024/01/24 13:20:05;;;;;;;25.80;6.05;;;;;;;;;;5064474;28;20654;-78
2024/01/24 13:22:31;;;;;;;31.00;7.10;;;;;;;;;;5059280;28;20036;-78
2024/01/24 13:24:57;;;;;;;30.40;5.90;;;;;;;;;;5061340;28;20043;-78
2024/01/24 13:27:26;;;;;;;39.90;6.97;;;;;;;;;;5080773;28;20486;-78
2024/01/24 13:29:52;;;;;;;40.22;7.18;;;;;;;;;;5035659;28;20094;-78
2024/01/24 13:32:19;;;;;;;39.78;6.38;;;;;;;;;;5065105;28;20093;-78
2024/01/24 13:34:45;;;;;;;37.90;6.63;;;;;;;;;;5063179;28;20047;-77
2024/01/24 13:37:12;;;;;;;48.28;7.32;;;;;;;;;;5074373;28;20093;-76
2024/01/24 13:39:38;;;;;;;40.80;6.55;;;;;;;;;;5040946;28;20084;-76
2024/01/24 13:42:04;;;;;;;29.90;5.63;;;;;;;;;;5063620;28;20036;-78
2024/01/24 13:44:31;;;;;;;34.72;6.53;;;;;;;;;;5062658;28;20130;-77
2024/01/24 13:46:57;;;;;;;42.95;7.63;;;;;;;;;;5056186;28;20043;-77
2024/01/24 13:49:24;;;;;;;25.75;6.35;;;;;;;;;;5061570;28;20043;-78
2024/01/24 13:51:50;;;;;;;47.60;6.95;;;;;;;;;;5066659;28;20047;-76
2024/01/24 13:54:16;;;;;;;38.42;6.75;;;;;;;;;;5074060;28;20054;-76
2024/01/24 13:56:43;;;;;;;50.50;7.85;;;;;;;;;;5073855;28;20047;-76
2024/01/24 13:59:10;;;;;;;39.95;8.02;;;;;;;;;;5070365;28;20093;-76
2024/01/24 14:01:36;;;;;;;36.28;6.55;;;;;;;;;;5082929;28;21064;-76
2024/01/24 14:04:02;;;;;;;41.45;7.68;;;;;;;;;;5069219;28;20068;-77
2024/01/24 14:06:28;;;;;;;38.20;6.82;;;;;;;;;;5077521;28;20028;-77
2024/01/24 14:08:54;;;;;;;42.67;7.57;;;;;;;;;;5052627;28;20028;-75
2024/01/24 14:11:20;;;;;;;36.97;7.35;;;;;;;;;;5071660;28;20039;-76
2024/01/24 14:13:48;;;;;;;32.22;6.72;;;;;;;;;;5043843;28;20036;-78
2024/01/24 14:16:18;;;;;;;48.33;7.55;;;;;;;;;;5061582;28;20051;-76
2024/01/24 14:18:44;;;;;;;39.65;6.47;;;;;;;;;;5082057;28;20402;-76
2024/01/24 14:21:11;;;;;;;39.72;7.15;;;;;;;;;;5057989;28;20043;-76
2024/01/24 14:23:44;;;;;;;41.75;7.97;;;;;;;;;;5070421;28;20048;-76
2024/01/24 14:26:11;;;;;;;42.22;8.05;;;;;;;;;;5057274;28;20507;-77
2024/01/24 14:28:37;;;;;;;45.15;7.32;;;;;;;;;;5072605;28;20040;-77